Thessalon, Canada
Current Conditions -  °F | °C
As of 5:34 AM on Thursday 23 Oct 2014 (Local Time) from KDRM Reporting Station
Clear Clear  
Wind Chill: 27°   Ceiling: Unl
Heat Index: 27°   Visibility: 10mi
Dew Point: 27°   Wind: 0mph
Humidity: 100%   Direction: NA
Pressure: 30.23"   Gusts: NA
Location:  46.25°N, 83.55°W
Report Text: KDRM 230934Z AUTO 00000KT 10SM CLR M03/M03 A3023 RMK AO2 T10291029
Loading
Personal Weather Stations






























Interactive Weather Map
Tropical Storm Tracking
New forecast layout! Learn more

10-Day Weather Forecast

Advertisements
Track Severe Weather on mobile